createdAt,value
2019-04-23T00:00:56.429Z,45.50
2019-04-23T00:03:30.653Z,45.30
2019-04-23T00:05:59.935Z,45.80
2019-04-23T00:08:29.176Z,45.80
2019-04-23T00:10:58.497Z,45.20
2019-04-23T00:13:30.447Z,45.00
2019-04-23T00:16:21.099Z,44.70
2019-04-23T00:18:42.589Z,44.30
2019-04-23T00:21:31.855Z,43.60
2019-04-23T00:24:01.483Z,43.80
2019-04-23T00:29:01.031Z,44.50
2019-04-23T00:31:29.605Z,44.80
2019-04-23T00:33:56.815Z,44.60
2019-04-23T00:36:32.509Z,44.40
2019-04-23T00:38:55.793Z,44.00
2019-04-23T00:41:33.430Z,44.50
2019-04-23T00:46:29.675Z,45.40
2019-04-23T00:51:34.732Z,46.90
2019-04-23T00:53:56.613Z,46.70
2019-04-23T00:56:38.582Z,45.90
2019-04-23T00:59:01.330Z,45.10
2019-04-23T01:01:36.859Z,45.00
2019-04-23T01:03:58.265Z,44.80
2019-04-23T01:06:29.046Z,44.30
2019-04-23T01:09:06.834Z,44.10
2019-04-23T01:11:46.698Z,43.70
2019-04-23T01:14:03.979Z,43.80
2019-04-23T01:16:28.733Z,44.00
2019-04-23T01:18:59.597Z,44.80
2019-04-23T01:21:18.182Z,45.50
2019-04-23T01:24:00.282Z,46.20
2019-04-23T01:26:50.051Z,45.80
2019-04-23T01:29:20.219Z,46.10
2019-04-23T01:31:54.828Z,46.80
2019-04-23T01:34:26.037Z,46.30
2019-04-23T01:36:51.577Z,46.30
2019-04-23T01:39:22.816Z,46.30
2019-04-23T01:41:55.591Z,47.30
2019-04-23T01:44:33.425Z,46.30
2019-04-23T01:46:54.511Z,47.10
2019-04-23T01:49:31.179Z,47.50
2019-04-23T01:54:27.230Z,46.90
2019-04-23T01:56:56.713Z,46.60
2019-04-23T01:59:26.318Z,47.20
2019-04-23T02:02:01.406Z,47.40
2019-04-23T02:04:28.525Z,47.40
2019-04-23T02:07:01.193Z,47.60
2019-04-23T02:09:37.259Z,47.50
2019-04-23T02:11:59.178Z,47.60
2019-04-23T02:14:37.550Z,47.80
2019-04-23T02:17:08.048Z,47.70
2019-04-23T02:19:44.733Z,48.00
2019-04-23T02:22:03.637Z,48.10
2019-04-23T02:24:41.286Z,47.90
2019-04-23T02:27:15.189Z,47.60
2019-04-23T02:32:10.982Z,47.60
2019-04-23T02:34:51.231Z,47.50
2019-04-23T02:37:24.448Z,47.70
2019-04-23T02:40:11.395Z,47.80
2019-04-23T02:42:30.715Z,48.10
2019-04-23T02:44:48.946Z,48.00
2019-04-23T02:47:36.956Z,48.30
2019-04-23T02:49:54.418Z,48.10
2019-04-23T02:52:26.385Z,47.80
2019-04-23T02:54:50.432Z,47.90
2019-04-23T02:57:13.422Z,48.10
2019-04-23T03:00:08.061Z,47.90
2019-04-23T03:02:37.100Z,48.40
2019-04-23T03:04:52.238Z,48.80
2019-04-23T03:07:40.911Z,48.90
2019-04-23T03:09:56.572Z,49.30
2019-04-23T03:12:25.028Z,49.60
2019-04-23T03:15:00.802Z,49.80
2019-04-23T03:17:20.804Z,49.50
2019-04-23T03:20:07.951Z,49.50
2019-04-23T03:25:23.494Z,49.60
2019-04-23T03:27:41.949Z,49.50
2019-04-23T03:34:20.826Z,49.40
2019-04-23T03:35:36.146Z,50.00
2019-04-23T03:37:46.417Z,51.00
2019-04-23T03:43:02.392Z,50.00
2019-04-23T03:47:54.411Z,50.10
2019-04-23T03:50:23.356Z,49.80
2019-04-23T03:55:28.069Z,49.40
2019-04-23T03:57:43.377Z,50.10
2019-04-23T04:00:33.224Z,50.30
2019-04-23T04:03:00.770Z,50.10
2019-04-23T04:05:32.896Z,50.00
2019-04-23T04:08:04.928Z,49.60
2019-04-23T04:10:41.629Z,49.60
2019-04-23T04:13:01.415Z,49.80
2019-04-23T04:18:11.801Z,49.50
2019-04-23T04:20:44.072Z,49.30
2019-04-23T04:25:33.602Z,49.70
2019-04-23T04:28:11.547Z,50.70
2019-04-23T04:30:40.981Z,51.00
2019-04-23T04:33:04.981Z,51.10
2019-04-23T04:35:48.722Z,51.00
2019-04-23T04:38:15.589Z,52.00
2019-04-23T04:40:38.035Z,52.10
2019-04-23T04:43:16.051Z,51.60
2019-04-23T04:48:14.090Z,52.80
2019-04-23T05:01:08.441Z,52.10
2019-04-23T05:03:29.138Z,53.10
2019-04-23T05:08:38.311Z,53.80
2019-04-23T05:11:09.159Z,53.90
2019-04-23T05:16:07.969Z,52.50
2019-04-23T05:21:10.387Z,53.20
2019-04-23T05:23:45.847Z,52.40
2019-04-23T05:26:15.549Z,51.90
2019-04-23T05:28:50.519Z,53.40
2019-04-23T05:31:27.655Z,52.20
2019-04-23T05:34:04.487Z,51.80
2019-04-23T05:36:37.829Z,51.70
2019-04-23T05:41:34.822Z,52.10
2019-04-23T05:44:10.481Z,52.30
2019-04-23T05:49:09.226Z,52.70
2019-04-23T05:51:46.409Z,52.10
2019-04-23T05:54:09.172Z,52.40
2019-04-23T06:04:32.746Z,52.90
2019-04-23T06:07:15.121Z,51.80
2019-04-23T06:09:31.376Z,52.90
2019-04-23T06:14:32.908Z,53.50
2019-04-23T06:17:09.256Z,53.10
2019-04-23T06:19:27.672Z,53.00
2019-04-23T06:29:31.908Z,53.40
2019-04-23T06:32:00.455Z,53.20
2019-04-23T06:34:46.986Z,53.10
2019-04-23T06:37:06.894Z,53.00
2019-04-23T06:42:08.180Z,53.30
2019-04-23T06:44:37.339Z,53.10
2019-04-23T06:47:07.000Z,53.10
2019-04-23T06:52:15.128Z,53.40
2019-04-23T06:55:02.996Z,53.70
2019-04-23T06:57:18.667Z,54.10
2019-04-23T06:59:41.266Z,54.00
2019-04-23T07:02:11.893Z,53.50
2019-04-23T07:04:50.007Z,53.10
2019-04-23T07:09:50.485Z,53.50
2019-04-23T07:12:15.430Z,52.80
2019-04-23T07:17:24.696Z,54.00
2019-04-23T07:24:51.023Z,53.80
2019-04-23T07:27:20.987Z,54.10
2019-04-23T07:32:15.150Z,52.60
2019-04-23T07:34:55.977Z,52.90
2019-04-23T07:37:18.948Z,52.30
2019-04-23T07:39:57.031Z,51.80
2019-04-23T07:42:34.411Z,51.90
2019-04-23T07:45:02.087Z,51.40
2019-04-23T07:47:51.948Z,51.10
2019-04-23T07:53:00.319Z,52.60
2019-04-23T07:55:27.008Z,51.50
2019-04-23T07:58:00.745Z,51.70
2019-04-23T08:00:29.638Z,51.00
2019-04-23T08:02:57.794Z,50.40
2019-04-23T08:05:22.848Z,50.10
2019-04-23T08:07:55.844Z,50.90
2019-04-23T08:10:21.454Z,49.90
2019-04-23T08:12:55.565Z,51.60
2019-04-23T08:15:24.975Z,51.50
2019-04-23T08:17:53.107Z,50.80
2019-04-23T08:20:29.931Z,52.00
2019-04-23T08:22:56.414Z,52.20
2019-04-23T08:25:34.217Z,52.00
2019-04-23T08:27:56.019Z,51.70
2019-04-23T08:30:32.255Z,51.50
2019-04-23T08:33:04.319Z,51.20
2019-04-23T08:35:33.984Z,50.30
2019-04-23T08:38:26.030Z,50.10
2019-04-23T08:40:33.573Z,49.70
2019-04-23T08:43:32.927Z,49.90
2019-04-23T08:45:52.824Z,49.80
2019-04-23T08:50:49.049Z,48.80
2019-04-23T08:53:37.387Z,47.80
2019-04-23T08:58:30.107Z,47.90
2019-04-23T09:01:05.540Z,47.90
2019-04-23T09:03:31.366Z,47.60
2019-04-23T09:08:33.181Z,48.50
2019-04-23T09:11:14.623Z,48.10
2019-04-23T09:16:16.273Z,47.00
2019-04-23T09:18:46.076Z,46.80
2019-04-23T09:21:03.592Z,46.80
2019-04-23T09:28:41.693Z,45.90
2019-04-23T09:31:39.647Z,45.90
2019-04-23T09:36:55.660Z,46.10
2019-04-23T09:39:28.945Z,47.00
2019-04-23T09:42:09.003Z,48.10
2019-04-23T09:44:58.193Z,48.30
2019-04-23T09:47:45.830Z,47.80
2019-04-23T09:50:15.841Z,47.20
2019-04-23T09:55:23.972Z,45.60
2019-04-23T09:57:52.306Z,45.50
2019-04-23T10:00:25.661Z,45.50
2019-04-23T10:02:41.212Z,45.10
2019-04-23T10:05:07.293Z,44.80
2019-04-23T10:07:34.970Z,44.70
2019-04-23T10:09:53.540Z,45.20
2019-04-23T10:12:24.287Z,43.80
2019-04-23T10:15:02.317Z,44.40
2019-04-23T10:17:24.368Z,44.30
2019-04-23T10:19:55.035Z,45.30
2019-04-23T10:22:25.016Z,45.80
2019-04-23T10:24:55.263Z,46.20
2019-04-23T10:27:25.151Z,46.90
2019-04-23T10:29:54.214Z,45.60
2019-04-23T10:32:23.197Z,46.10
2019-04-23T10:35:03.563Z,46.40
2019-04-23T10:37:34.568Z,45.90
2019-04-23T10:39:59.228Z,45.60
2019-04-23T10:42:25.643Z,45.20
2019-04-23T10:45:16.636Z,45.30
2019-04-23T10:48:30.914Z,45.20
2019-04-23T10:50:51.372Z,44.30
2019-04-23T10:55:54.105Z,44.10
2019-04-23T11:01:01.530Z,44.60
2019-04-23T11:08:33.666Z,43.00
2019-04-23T11:11:05.347Z,42.50
2019-04-23T11:16:39.463Z,41.50
2019-04-23T11:18:46.775Z,41.10
2019-04-23T11:21:14.880Z,41.10
2019-04-23T11:23:37.667Z,41.80
2019-04-23T11:26:19.912Z,42.10
2019-04-23T11:28:40.596Z,41.80
2019-04-23T11:31:12.642Z,40.80
2019-04-23T11:33:42.963Z,40.20
2019-04-23T11:38:54.385Z,39.10
2019-04-23T11:41:22.585Z,40.20
2019-04-23T11:43:46.380Z,39.10
2019-04-23T11:46:43.091Z,39.00
2019-04-23T11:53:57.018Z,38.90
2019-04-23T11:56:51.013Z,40.20
2019-04-23T11:58:59.658Z,40.10
2019-04-23T12:06:55.880Z,40.80
2019-04-23T12:09:35.272Z,39.50
2019-04-23T12:14:40.449Z,40.70
2019-04-23T12:18:01.053Z,40.00
2019-04-23T12:22:16.571Z,40.30
2019-04-23T12:25:12.211Z,40.50
2019-04-23T12:27:17.062Z,41.00
2019-04-23T12:37:41.101Z,41.80
2019-04-23T12:40:24.909Z,42.00
2019-04-23T12:45:20.626Z,40.20
2019-04-23T12:52:47.177Z,41.80
2019-04-23T12:57:47.308Z,41.00
2019-04-23T13:00:20.923Z,40.60
2019-04-23T13:05:26.011Z,40.40
2019-04-23T13:10:28.102Z,39.60
2019-04-23T13:13:04.558Z,37.90
2019-04-23T13:15:23.008Z,37.60
2019-04-23T13:17:57.326Z,38.30
2019-04-23T13:20:23.251Z,37.10
2019-04-23T13:22:59.704Z,36.40
2019-04-23T13:25:29.187Z,35.70
2019-04-23T13:28:03.612Z,36.80
2019-04-23T13:33:02.874Z,36.60
2019-04-23T13:37:59.028Z,35.90
2019-04-23T13:40:32.181Z,36.20
2019-04-23T13:43:01.006Z,37.80
2019-04-23T13:48:06.292Z,37.00
2019-04-23T13:55:32.294Z,36.90
2019-04-23T13:58:11.760Z,36.40
2019-04-23T14:03:03.194Z,38.00
2019-04-23T14:06:10.823Z,37.40
2019-04-23T14:08:22.813Z,37.40
2019-04-23T14:10:44.896Z,37.40
2019-04-23T14:20:53.045Z,35.60
2019-04-23T14:26:11.355Z,36.10
2019-04-23T14:28:28.760Z,36.20
2019-04-23T14:31:03.028Z,34.90
2019-04-23T14:33:43.253Z,33.60
2019-04-23T14:43:40.226Z,32.00
2019-04-23T14:48:47.971Z,31.90
2019-04-23T14:56:18.968Z,31.50
2019-04-23T14:58:57.908Z,31.20
2019-04-23T15:03:50.523Z,31.80
2019-04-23T15:06:36.084Z,31.30
2019-04-23T15:13:55.398Z,29.90
2019-04-23T15:28:49.101Z,31.10
2019-04-23T15:31:44.401Z,31.90
2019-04-23T15:39:19.171Z,32.80
2019-04-23T15:41:49.053Z,32.80
2019-04-23T15:44:14.817Z,33.10
2019-04-23T15:46:47.653Z,33.50
2019-04-23T15:51:56.637Z,33.00
2019-04-23T15:56:50.530Z,32.10
2019-04-23T15:59:24.637Z,32.00
2019-04-23T16:01:37.373Z,33.40
2019-04-23T16:03:49.074Z,33.10
2019-04-23T16:06:22.183Z,33.20
2019-04-23T16:09:39.886Z,33.50
2019-04-23T16:11:58.104Z,32.70
2019-04-23T16:14:22.719Z,33.70
2019-04-23T16:16:58.419Z,32.90
2019-04-23T16:19:23.656Z,33.00
2019-04-23T16:22:03.770Z,33.70
2019-04-23T16:24:19.544Z,34.10
2019-04-23T16:27:07.651Z,34.80
2019-04-23T16:29:36.963Z,34.80
2019-04-23T16:34:29.280Z,35.80
2019-04-23T16:36:59.509Z,35.60
2019-04-23T16:39:39.712Z,35.20
2019-04-23T16:42:17.634Z,35.30
2019-04-23T16:44:44.881Z,36.70
2019-04-23T16:47:23.170Z,36.00
2019-04-23T16:49:42.192Z,35.30
2019-04-23T16:52:20.041Z,36.50
2019-04-23T16:54:53.783Z,35.80
2019-04-23T16:59:46.851Z,36.30
2019-04-23T17:02:19.642Z,36.50
2019-04-23T17:04:53.013Z,36.20
2019-04-23T17:07:06.958Z,36.10
2019-04-23T17:09:54.741Z,35.80
2019-04-23T17:12:13.522Z,36.00
2019-04-23T17:14:41.340Z,36.50
2019-04-23T17:17:11.946Z,36.20
2019-04-23T17:19:47.096Z,36.40
2019-04-23T17:22:31.366Z,36.60
2019-04-23T17:24:56.174Z,36.50
2019-04-23T17:29:48.906Z,36.50
2019-04-23T17:32:14.926Z,37.00
2019-04-23T17:34:57.265Z,37.10
2019-04-23T17:40:15.873Z,36.90
2019-04-23T17:52:42.017Z,37.70
2019-04-23T17:55:13.392Z,37.80
2019-04-23T18:02:59.269Z,38.50
2019-04-23T18:05:11.126Z,39.00
2019-04-23T18:12:57.832Z,39.10
2019-04-23T18:15:12.079Z,39.20
2019-04-23T18:20:16.590Z,38.50
2019-04-23T18:22:56.847Z,39.00
2019-04-23T18:25:26.733Z,39.10
2019-04-23T18:30:26.404Z,39.50
2019-04-23T18:33:31.909Z,39.60
2019-04-23T18:35:24.374Z,40.00
2019-04-23T18:37:56.838Z,39.60
2019-04-23T18:40:28.756Z,39.80
2019-04-23T18:43:04.550Z,39.80
2019-04-23T18:45:41.673Z,40.40
2019-04-23T18:53:29.733Z,41.10
2019-04-23T18:56:05.508Z,40.80
2019-04-23T18:58:08.330Z,41.00
2019-04-23T19:01:00.078Z,41.00
2019-04-23T19:06:32.050Z,41.50
2019-04-23T19:14:24.568Z,43.10
2019-04-23T19:17:07.275Z,43.50
2019-04-23T19:19:19.312Z,43.60
2019-04-23T19:24:18.440Z,43.70
2019-04-23T19:29:21.287Z,43.10
2019-04-23T19:36:58.590Z,42.30
2019-04-23T19:39:29.491Z,42.60
2019-04-23T19:42:02.242Z,42.90
2019-04-23T19:44:26.866Z,43.40
2019-04-23T19:49:28.036Z,44.30
2019-04-23T19:54:39.238Z,43.10
2019-04-23T19:56:55.233Z,43.10
2019-04-23T19:59:39.557Z,43.20
2019-04-23T20:02:02.077Z,43.20
2019-04-23T20:04:38.712Z,43.00
2019-04-23T20:09:50.753Z,43.70
2019-04-23T20:12:00.333Z,44.20
2019-04-23T20:14:31.818Z,44.50
2019-04-23T20:19:41.323Z,44.30
2019-04-23T20:22:11.204Z,44.20
2019-04-23T20:24:40.830Z,44.00
2019-04-23T20:27:11.806Z,43.90
2019-04-23T20:29:50.839Z,43.20
2019-04-23T20:37:25.855Z,45.30
2019-04-23T20:39:55.110Z,45.50
2019-04-23T20:42:20.366Z,45.20
2019-04-23T20:44:57.153Z,44.80
2019-04-23T20:47:17.665Z,45.60
2019-04-23T20:49:50.451Z,45.10
2019-04-23T20:52:13.792Z,44.90
2019-04-23T20:57:39.214Z,46.00
2019-04-23T21:00:01.625Z,46.20
2019-04-23T21:02:52.125Z,47.00
2019-04-23T21:05:10.219Z,47.50
2019-04-23T21:07:49.181Z,48.50
2019-04-23T21:10:18.247Z,48.00
2019-04-23T21:12:58.154Z,47.60
2019-04-23T21:15:13.226Z,47.90
2019-04-23T21:20:19.668Z,48.10
2019-04-23T21:22:37.867Z,47.70
2019-04-23T21:25:08.191Z,48.00
2019-04-23T21:30:09.062Z,48.00
2019-04-23T21:32:53.463Z,48.40
2019-04-23T21:35:16.899Z,48.20
2019-04-23T21:43:35.886Z,48.00
2019-04-23T21:45:52.734Z,48.60
2019-04-23T21:53:58.722Z,48.30
2019-04-23T21:56:37.251Z,49.10
2019-04-23T21:59:10.408Z,49.70
2019-04-23T22:04:19.104Z,48.90
2019-04-23T22:06:43.486Z,49.40
2019-04-23T22:09:16.068Z,49.20
2019-04-23T22:14:09.884Z,49.40
2019-04-23T22:17:01.573Z,50.30
2019-04-23T22:21:54.473Z,51.00
2019-04-23T22:26:45.525Z,51.70
2019-04-23T22:29:18.794Z,51.90
2019-04-23T22:31:47.129Z,52.00
2019-04-23T22:34:21.803Z,51.80
2019-04-23T22:36:58.001Z,51.80
2019-04-23T22:39:27.657Z,52.30
2019-04-23T22:44:22.515Z,53.00
2019-04-23T22:46:56.413Z,53.10
2019-04-23T22:49:33.931Z,54.10
2019-04-23T22:52:10.758Z,54.00
2019-04-23T22:54:25.856Z,54.30
2019-04-23T23:01:59.236Z,54.00
2019-04-23T23:04:31.385Z,53.80
2019-04-23T23:07:03.253Z,53.90
2019-04-23T23:09:33.311Z,54.40
2019-04-23T23:17:02.259Z,56.00
2019-04-23T23:19:46.317Z,56.70
2019-04-23T23:24:38.971Z,57.10
2019-04-23T23:29:43.021Z,56.10
2019-04-23T23:32:07.767Z,56.50
2019-04-23T23:34:56.547Z,57.00
2019-04-23T23:37:07.167Z,57.10
2019-04-23T23:39:49.768Z,57.30
2019-04-23T23:42:09.732Z,57.50
2019-04-23T23:47:15.021Z,58.60
2019-04-23T23:52:12.959Z,57.90
2019-04-23T23:54:50.111Z,57.70
